Time;durP1;ratioP1;P1;durP2;ratioP2;P2;SDS_P1;SDS_P2;PMS_P1;PMS_P2;Temp;Humidity;BMP_temperature;BMP_pressure;BME280_temperature;BME280_humidity;BME280_pressure;Samples;Min_cycle;Max_cycle;Signal;HPM_P1;HPM_P2
2022/05/12 00:02:27;;;;;;;8.13;3.55;;;;;;;9.48;65.77;100515.88;5038414;28;20144;-57
2022/05/12 00:04:59;;;;;;;8.70;3.45;;;;;;;9.89;65.76;100509.44;5038294;28;20111;-57
2022/05/12 00:07:31;;;;;;;12.13;3.97;;;;;;;10.09;65.08;100508.38;5038311;28;20053;-58
2022/05/12 00:10:02;;;;;;;9.30;3.60;;;;;;;10.31;65.96;100504.66;5037526;28;20231;-59
2022/05/12 00:12:32;;;;;;;9.07;4.30;;;;;;;10.43;64.38;100502.78;5037940;28;20061;-58
2022/05/12 00:15:03;;;;;;;18.60;5.97;;;;;;;10.53;63.33;100462.59;5037946;28;20438;-58
2022/05/12 00:17:34;;;;;;;23.17;11.82;;;;;;;10.85;60.68;100474.38;5037856;28;20145;-57
2022/05/12 00:20:05;;;;;;;7.05;4.13;;;;;;;10.98;60.91;100496.81;5038120;28;20360;-57
2022/05/12 00:22:38;;;;;;;7.78;3.53;;;;;;;11.16;59.28;100509.66;5037989;28;20045;-58
2022/05/12 00:25:12;;;;;;;11.85;4.10;;;;;;;11.00;59.19;100466.31;5037820;28;20111;-58
2022/05/12 00:27:43;;;;;;;13.23;4.55;;;;;;;11.45;59.49;100513.56;5037955;28;20309;-58
2022/05/12 00:30:14;;;;;;;7.03;3.70;;;;;;;11.41;59.22;100511.91;5037757;28;20065;-58
2022/05/12 00:32:47;;;;;;;9.20;3.35;;;;;;;11.33;59.69;100495.44;5037691;28;20124;-57
2022/05/12 00:35:18;;;;;;;14.30;4.30;;;;;;;11.32;58.46;100506.81;5037747;28;20050;-57
2022/05/12 00:37:51;;;;;;;16.02;4.75;;;;;;;11.57;58.94;100513.38;5037631;28;20072;-57
2022/05/12 00:40:21;;;;;;;11.10;5.00;;;;;;;11.74;58.59;100493.91;5037670;28;20041;-57
2022/05/12 00:42:57;;;;;;;13.63;4.22;;;;;;;12.01;57.23;100482.97;5037568;28;20053;-59
2022/05/12 00:45:30;;;;;;;10.50;4.47;;;;;;;12.40;55.83;100490.91;5037656;28;20095;-59
2022/05/12 00:48:00;;;;;;;11.90;4.25;;;;;;;12.51;53.84;100460.13;5037297;28;20057;-59
2022/05/12 00:50:35;;;;;;;12.70;3.95;;;;;;;13.01;52.39;100478.25;5037211;28;20116;-59
2022/05/12 00:53:10;;;;;;;9.43;3.80;;;;;;;13.29;50.92;100465.38;5048224;28;20123;-58
2022/05/12 00:55:44;;;;;;;12.07;4.10;;;;;;;13.63;48.72;100472.44;5057296;28;20056;-56
2022/05/12 00:58:19;;;;;;;16.63;3.63;;;;;;;14.06;47.38;100455.53;5050391;28;20057;-58
2022/05/12 01:00:49;;;;;;;17.88;3.92;;;;;;;14.46;47.17;100449.13;5042281;28;20061;-57
2022/05/12 01:03:23;;;;;;;12.45;3.58;;;;;;;14.49;46.25;100458.69;5045760;28;20119;-57
2022/05/12 01:05:55;;;;;;;12.32;3.47;;;;;;;14.46;45.68;100438.59;5056910;28;20049;-57
2022/05/12 01:08:27;;;;;;;11.75;3.80;;;;;;;14.69;46.78;100444.97;5057116;28;20376;-57
2022/05/12 01:11:02;;;;;;;17.40;3.83;;;;;;;14.80;46.50;100435.88;5061473;28;20094;-59
2022/05/12 01:13:33;;;;;;;17.50;4.00;;;;;;;15.00;45.20;100445.75;5064398;28;20036;-58
2022/05/12 01:16:05;;;;;;;29.17;4.78;;;;;;;15.22;45.59;100439.78;5066344;28;20112;-59
2022/05/12 01:18:40;;;;;;;25.23;4.10;;;;;;;15.66;44.94;100440.06;5062076;28;20051;-59
2022/05/12 01:21:12;;;;;;;15.80;3.83;;;;;;;15.98;44.60;100430.22;5063945;28;20124;-59
2022/05/12 01:23:44;;;;;;;8.57;3.60;;;;;;;16.07;43.70;100419.31;5065541;28;20044;-59
2022/05/12 01:26:15;;;;;;;11.30;3.60;;;;;;;16.20;44.74;100423.25;5066648;28;20057;-58
2022/05/12 01:28:46;;;;;;;11.30;3.55;;;;;;;16.26;43.16;100430.91;5066034;28;20067;-58
2022/05/12 01:31:18;;;;;;;13.93;3.60;;;;;;;16.43;44.93;100434.72;5062141;28;20057;-58
2022/05/12 01:33:51;;;;;;;12.73;3.50;;;;;;;16.58;43.73;100420.94;5064846;28;20052;-59
2022/05/12 01:36:22;;;;;;;20.83;5.47;;;;;;;16.81;44.83;100426.19;5063091;28;20116;-59
2022/05/12 01:38:54;;;;;;;14.80;3.83;;;;;;;16.96;44.02;100421.22;5063981;28;20381;-58
2022/05/12 01:41:25;;;;;;;13.43;3.93;;;;;;;17.10;44.37;100424.16;5064398;28;20360;-59
2022/05/12 01:43:56;;;;;;;33.00;6.03;;;;;;;16.99;44.62;100431.66;5062401;28;20309;-58
2022/05/12 01:46:26;;;;;;;16.70;3.70;;;;;;;16.83;44.81;100435.84;5051357;28;20353;-57
2022/05/12 01:48:57;;;;;;;27.47;4.43;;;;;;;16.69;44.96;100445.09;5055462;28;20299;-58
2022/05/12 01:51:29;;;;;;;17.50;3.30;;;;;;;16.47;43.65;100446.84;5052271;28;20338;-57
2022/05/12 01:54:01;;;;;;;11.70;3.07;;;;;;;16.23;45.34;100431.03;5052443;28;20358;-57
2022/05/12 01:56:31;;;;;;;9.47;2.77;;;;;;;16.23;45.41;100422.28;5052480;28;20318;-57
2022/05/12 01:59:02;;;;;;;8.03;2.57;;;;;;;16.34;45.89;100413.00;5052424;28;20621;-57
2022/05/12 02:01:33;;;;;;;7.97;2.70;;;;;;;16.62;45.73;100406.69;5052220;28;20323;-57
2022/05/12 02:04:05;;;;;;;6.50;2.60;;;;;;;16.74;45.73;100400.91;5052332;28;20681;-58
2022/05/12 02:06:36;;;;;;;4.73;2.50;;;;;;;16.66;44.60;100402.16;5051309;28;20287;-59
2022/05/12 02:09:09;;;;;;;21.57;4.10;;;;;;;16.53;46.01;100391.22;5051972;28;20311;-58
2022/05/12 02:11:40;;;;;;;12.73;2.87;;;;;;;16.58;47.36;100387.50;5051858;28;20284;-58
2022/05/12 02:14:10;;;;;;;12.60;2.97;;;;;;;16.59;46.78;100398.91;5051367;28;20882;-58
2022/05/12 02:16:41;;;;;;;8.20;2.77;;;;;;;16.48;47.36;100419.56;5051608;28;20305;-57
2022/05/12 02:19:12;;;;;;;8.53;2.50;;;;;;;16.31;47.82;100418.41;5052065;28;20291;-59
2022/05/12 02:21:43;;;;;;;11.83;2.60;;;;;;;16.08;47.26;100415.78;5051693;28;20314;-58
2022/05/12 02:24:15;;;;;;;10.77;2.50;;;;;;;15.68;46.93;100417.19;5052033;28;20329;-57
2022/05/12 02:26:46;;;;;;;20.43;2.93;;;;;;;15.31;48.70;100431.59;5052082;28;20288;-57
2022/05/12 02:29:17;;;;;;;8.43;2.30;;;;;;;15.09;48.45;100429.66;5051958;28;20306;-57
2022/05/12 02:31:47;;;;;;;12.38;2.20;;;;;;;14.79;48.80;100431.50;5051936;28;20669;-58
2022/05/12 02:34:18;;;;;;;12.53;2.77;;;;;;;14.70;49.54;100431.75;5055514;28;20053;-57
2022/05/12 02:36:59;;;;;;;19.80;3.13;;;;;;;14.93;48.39;100428.44;5055705;28;20461;-57
2022/05/12 02:39:35;;;;;;;8.85;2.63;;;;;;;14.66;49.31;100425.75;5055727;28;20327;-57
2022/05/12 02:42:07;;;;;;;31.45;4.45;;;;;;;14.75;49.47;100407.94;5055735;28;20112;-57
2022/05/12 02:44:38;;;;;;;13.10;3.10;;;;;;;14.63;50.03;100425.84;5055078;28;20053;-57
2022/05/12 02:47:09;;;;;;;11.57;3.33;;;;;;;14.67;49.57;100411.69;5055497;28;20052;-57
2022/05/12 02:49:40;;;;;;;7.68;3.08;;;;;;;14.88;50.41;100404.06;5055588;28;20083;-57
2022/05/12 02:52:11;;;;;;;11.38;2.80;;;;;;;15.12;49.19;100401.50;5055750;28;20056;-58
2022/05/12 02:54:43;;;;;;;5.88;2.42;;;;;;;15.29;49.29;100388.66;5055615;28;20061;-59
2022/05/12 02:57:14;;;;;;;5.40;2.55;;;;;;;15.53;49.37;100382.56;5055703;28;20072;-58
2022/05/12 02:59:44;;;;;;;10.55;2.60;;;;;;;15.54;48.54;100386.91;5055243;28;20057;-58
2022/05/12 03:02:16;;;;;;;8.10;2.67;;;;;;;15.69;50.13;100363.56;5055429;28;20124;-57
2022/05/12 03:04:46;;;;;;;33.90;4.30;;;;;;;15.66;48.46;100351.38;5055427;28;20052;-58
2022/05/12 03:07:17;;;;;;;20.42;3.15;;;;;;;15.44;49.87;100347.78;5055355;28;20053;-58
2022/05/12 03:09:49;;;;;;;14.43;2.43;;;;;;;15.44;49.87;100345.16;5055518;28;20119;-58
2022/05/12 03:12:20;;;;;;;9.63;2.35;;;;;;;15.40;50.01;100339.13;5055429;28;20287;-57
2022/05/12 03:14:51;;;;;;;4.78;2.45;;;;;;;15.34;51.05;100344.59;5055106;28;20055;-57
2022/05/12 03:17:21;;;;;;;5.78;2.50;;;;;;;15.41;49.77;100335.59;5055427;28;20053;-57
2022/05/12 03:19:52;;;;;;;9.98;2.30;;;;;;;15.45;50.54;100342.47;5055698;28;20053;-58
2022/05/12 03:22:23;;;;;;;14.73;2.50;;;;;;;15.39;50.12;100311.06;5055341;28;20057;-57
2022/05/12 03:24:55;;;;;;;11.88;2.47;;;;;;;15.53;49.55;100323.75;5055220;28;20045;-57
2022/05/12 03:27:26;;;;;;;7.90;2.47;;;;;;;15.73;50.21;100325.72;5054769;28;20051;-57
2022/05/12 03:29:56;;;;;;;15.88;2.72;;;;;;;16.01;49.88;100320.25;5055153;28;20329;-58
2022/05/12 03:32:27;;;;;;;10.40;2.77;;;;;;;16.22;48.20;100308.03;5054892;28;20238;-57
2022/05/12 03:34:58;;;;;;;5.17;2.63;;;;;;;15.88;48.95;100272.44;5054911;28;20322;-58
2022/05/12 03:37:28;;;;;;;7.80;2.70;;;;;;;16.09;49.34;100306.78;5055028;28;20364;-57
2022/05/12 03:40:00;;;;;;;17.33;3.53;;;;;;;16.34;49.26;100312.81;5054009;28;20295;-59
2022/05/12 03:42:31;;;;;;;6.80;3.33;;;;;;;16.49;48.06;100300.78;5054337;28;20616;-59
2022/05/12 03:45:00;;;;;;;27.53;4.83;;;;;;;16.69;49.12;100302.63;5054007;28;20292;-57
2022/05/12 03:47:32;;;;;;;;;;;;;;;16.90;47.38;100289.50;5055015;28;20307;-58
2022/05/12 03:50:05;;;;;;;7.27;3.03;;;;;;;17.07;47.78;100292.28;5054025;28;19963;-58
2022/05/12 03:52:36;;;;;;;16.90;3.60;;;;;;;17.40;47.15;100289.13;5054624;28;20359;-58
2022/05/12 03:55:11;;;;;;;12.50;4.07;;;;;;;16.98;46.70;100187.09;5054042;28;20310;-58
2022/05/12 03:57:42;;;;;;;14.30;3.60;;;;;;;17.59;46.18;100290.00;5053931;28;20315;-58
2022/05/12 04:00:18;;;;;;;17.70;3.70;;;;;;;17.74;47.69;100287.59;5053942;28;20287;-58
2022/05/12 04:02:49;;;;;;;12.37;4.03;;;;;;;18.02;45.67;100277.50;5053521;28;20343;-59
2022/05/12 04:05:20;;;;;;;34.57;4.47;;;;;;;18.22;47.35;100278.31;5053948;28;20287;-59
2022/05/12 04:07:54;;;;;;;47.27;4.90;;;;;;;18.46;46.89;100255.97;5054540;28;20318;-59
2022/05/12 04:10:28;;;;;;;21.80;3.60;;;;;;;18.23;46.22;100221.88;5052114;28;20295;-59
2022/05/12 04:12:59;;;;;;;13.37;3.40;;;;;;;18.26;46.31;100258.72;5052556;28;20677;-59
2022/05/12 04:15:29;;;;;;;40.70;4.93;;;;;;;18.25;47.04;100267.63;5053159;28;20303;-59
2022/05/12 04:18:01;;;;;;;19.03;4.30;;;;;;;18.31;46.23;100277.88;5053995;28;20291;-59
2022/05/12 04:20:35;;;;;;;15.40;3.77;;;;;;;17.64;46.24;100184.94;5053274;28;20470;-59
2022/05/12 04:23:06;;;;;;;8.67;3.03;;;;;;;18.23;45.83;100258.91;5053983;28;20291;-58
2022/05/12 04:25:39;;;;;;;14.00;3.40;;;;;;;18.48;46.55;100275.28;5054131;28;20608;-58
2022/05/12 04:28:09;;;;;;;24.73;4.63;;;;;;;18.74;45.92;100275.78;5053698;28;20822;-58
2022/05/12 04:30:41;;;;;;;20.60;3.87;;;;;;;19.28;45.29;100262.47;5053601;28;20284;-59
2022/05/12 04:35:59;;;;;;;16.23;3.60;;;;;;;19.54;44.24;100269.03;5053526;28;20299;-57
2022/05/12 04:38:29;;;;;;;21.80;3.97;;;;;;;20.13;44.39;100253.47;5053226;28;20282;-59
2022/05/12 04:41:01;;;;;;;26.03;4.03;;;;;;;20.46;43.74;100261.31;5053246;28;20347;-59
2022/05/12 04:43:32;;;;;;;9.70;3.73;;;;;;;20.54;44.39;100258.22;5053330;28;20322;-58
2022/05/12 04:46:03;;;;;;;16.60;4.27;;;;;;;20.53;45.18;100265.31;5053188;28;20535;-58
2022/05/12 04:48:33;;;;;;;36.67;5.57;;;;;;;20.58;44.37;100260.63;5052989;28;20683;-58
2022/05/12 04:51:05;;;;;;;15.77;4.37;;;;;;;20.64;43.17;100268.25;5053639;28;20290;-58
2022/05/12 04:53:35;;;;;;;25.40;4.43;;;;;;;20.57;42.21;100264.25;5053595;28;20295;-58
2022/05/12 04:56:08;;;;;;;9.77;3.73;;;;;;;20.33;41.41;100265.63;5052904;28;20315;-59
2022/05/12 04:58:38;;;;;;;8.67;3.80;;;;;;;20.21;40.86;100268.00;5053512;28;20301;-58
2022/05/12 05:01:09;;;;;;;14.07;3.80;;;;;;;19.97;40.67;100272.06;5053398;28;20294;-58
2022/05/12 05:03:40;;;;;;;21.87;4.83;;;;;;;19.70;40.56;100262.00;5052928;28;20362;-58
2022/05/12 05:06:12;;;;;;;10.87;4.87;;;;;;;19.40;41.17;100257.38;5053245;28;20280;-58
2022/05/12 05:08:43;;;;;;;8.77;3.53;;;;;;;19.24;41.37;100260.91;5052946;28;20307;-59
2022/05/12 05:11:15;;;;;;;16.77;4.10;;;;;;;19.11;41.65;100264.19;5052733;28;20291;-60
2022/05/12 05:13:45;;;;;;;16.57;4.50;;;;;;;19.10;42.43;100261.66;5053366;28;20287;-60
2022/05/12 05:16:16;;;;;;;15.07;4.07;;;;;;;19.16;42.39;100240.13;5052700;28;20406;-58
2022/05/12 05:18:47;;;;;;;18.30;4.13;;;;;;;19.17;41.85;100237.41;5052663;28;20295;-59
2022/05/12 05:21:18;;;;;;;15.33;3.87;;;;;;;19.30;41.14;100232.31;5053147;28;20283;-58
2022/05/12 05:23:48;;;;;;;14.07;3.83;;;;;;;19.39;40.81;100226.53;5052710;28;20347;-58
2022/05/12 05:26:21;;;;;;;20.17;4.57;;;;;;;19.54;40.70;100234.56;5052757;28;20304;-58
2022/05/12 05:28:51;;;;;;;11.33;4.30;;;;;;;19.66;41.46;100227.75;5053014;28;20379;-59
2022/05/12 05:31:22;;;;;;;15.40;3.87;;;;;;;19.74;41.05;100242.31;5052962;28;20513;-58
2022/05/12 05:33:53;;;;;;;19.67;4.77;;;;;;;19.73;40.82;100234.47;5052672;28;20467;-59
2022/05/12 05:36:23;;;;;;;21.90;4.83;;;;;;;19.94;41.14;100237.72;5052776;28;20369;-59
2022/05/12 05:38:54;;;;;;;15.30;4.07;;;;;;;20.06;40.11;100247.66;5052779;28;20280;-58
2022/05/12 05:41:26;;;;;;;16.50;4.53;;;;;;;19.86;39.79;100245.25;5052753;28;20307;-59
2022/05/12 05:43:58;;;;;;;17.67;4.60;;;;;;;19.58;40.88;100257.34;5052810;28;21316;-59
2022/05/12 05:46:29;;;;;;;8.87;3.80;;;;;;;19.22;40.65;100261.00;5052562;28;20677;-58
2022/05/12 05:49:00;;;;;;;14.37;4.87;;;;;;;18.84;41.54;100277.06;5052610;28;20291;-59
2022/05/12 05:54:22;;;;;;;18.53;4.93;;;;;;;18.39;42.76;100286.31;5052477;28;20296;-60
2022/05/12 05:56:56;;;;;;;156.53;13.53;;;;;;;18.29;43.38;100290.31;5052285;28;20299;-59
2022/05/12 05:59:27;;;;;;;25.63;5.50;;;;;;;18.22;43.65;100284.50;5052583;28;20292;-58
2022/05/12 06:01:57;;;;;;;15.03;4.00;;;;;;;17.41;41.80;100290.81;5052539;28;20294;-58
2022/05/12 06:04:28;;;;;;;14.33;3.57;;;;;;;15.82;45.44;100293.72;5052317;28;20597;-59
2022/05/12 06:06:59;;;;;;;14.77;3.70;;;;;;;15.12;47.68;100285.72;5052508;28;20370;-58
2022/05/12 06:09:30;;;;;;;11.80;3.63;;;;;;;14.91;48.34;100293.44;5056748;28;20280;-58
2022/05/12 06:12:02;;;;;;;17.73;3.87;;;;;;;14.92;47.84;100300.41;5056583;28;20315;-58
2022/05/12 06:14:33;;;;;;;16.07;3.50;;;;;;;14.48;48.68;100284.31;5056227;28;20288;-58
2022/05/12 06:17:04;;;;;;;19.10;3.73;;;;;;;14.13;49.98;100273.13;5056124;28;20315;-58
2022/05/12 06:19:35;;;;;;;8.07;2.70;;;;;;;13.68;51.46;100276.22;5056353;28;20319;-59
2022/05/12 06:22:06;;;;;;;14.10;2.90;;;;;;;12.91;52.82;100267.81;5056691;28;20376;-57
2022/05/12 06:24:38;;;;;;;20.85;4.32;;;;;;;12.60;54.07;100277.31;5056077;28;20284;-58
2022/05/12 06:27:11;;;;;;;17.85;3.67;;;;;;;12.35;54.37;100288.38;5056446;28;20332;-58
2022/05/12 06:29:44;;;;;;;13.23;3.50;;;;;;;12.13;55.07;100289.78;5056279;28;20053;-58
2022/05/12 06:32:15;;;;;;;15.85;3.50;;;;;;;12.11;55.77;100288.97;5056040;28;20686;-58
2022/05/12 06:34:46;;;;;;;12.15;3.40;;;;;;;11.92;55.55;100289.34;5055718;28;20060;-58
2022/05/12 06:37:17;;;;;;;33.25;4.03;;;;;;;12.09;55.88;100291.63;5056013;28;20095;-57
2022/05/12 06:39:48;;;;;;;20.70;3.85;;;;;;;12.23;55.32;100293.91;5056062;28;20120;-58
2022/05/12 06:42:20;;;;;;;17.42;4.05;;;;;;;12.16;55.10;100294.97;5054789;28;20061;-58
2022/05/12 06:44:51;;;;;;;13.75;3.75;;;;;;;11.93;55.45;100285.84;5055766;28;20060;-58
2022/05/12 06:47:22;;;;;;;14.98;3.72;;;;;;;11.80;55.54;100271.25;5055700;28;20366;-58
2022/05/12 06:49:53;;;;;;;12.50;3.72;;;;;;;11.71;55.04;100279.31;5045724;28;20060;-57
2022/05/12 06:52:24;;;;;;;12.43;4.03;;;;;;;11.47;56.31;100265.81;5055761;28;20072;-58
2022/05/12 06:54:54;;;;;;;14.73;3.63;;;;;;;11.42;56.82;100272.91;5055640;28;20087;-58
2022/05/12 06:57:27;;;;;;;17.90;4.38;;;;;;;11.48;56.21;100272.78;5055731;28;20052;-57
2022/05/12 06:59:59;;;;;;;18.70;4.18;;;;;;;11.36;56.82;100273.03;5055479;28;20147;-57
2022/05/12 07:02:29;;;;;;;21.52;4.07;;;;;;;11.45;57.24;100278.06;5055237;28;20067;-57
2022/05/12 07:05:00;;;;;;;19.23;3.70;;;;;;;11.34;57.27;100275.66;5055494;28;20053;-56
2022/05/12 07:07:31;;;;;;;40.88;5.05;;;;;;;11.35;57.64;100260.84;5055400;28;20055;-57
2022/05/12 07:10:03;;;;;;;29.58;4.47;;;;;;;11.50;57.54;100268.38;5055279;28;20057;-57
2022/05/12 07:12:36;;;;;;;22.67;4.30;;;;;;;11.39;56.13;100272.97;5055215;28;20134;-58
2022/05/12 07:15:07;;;;;;;23.77;5.53;;;;;;;11.27;56.54;100268.84;5054525;28;20119;-57
2022/05/12 07:17:38;;;;;;;13.70;3.30;;;;;;;11.35;55.85;100277.38;5054866;28;20061;-56
2022/05/12 07:28:36;;;;;;;10.88;3.28;;;;;;;11.77;55.09;100287.03;5054913;28;20104;-56
2022/05/12 07:31:09;;;;;;;15.90;3.80;;;;;;;11.89;54.82;100268.47;5054746;28;20060;-57
2022/05/12 07:33:42;;;;;;;18.17;3.65;;;;;;;11.99;54.54;100290.94;5054999;28;20302;-57
2022/05/12 07:36:15;;;;;;;15.70;3.75;;;;;;;11.95;54.64;100302.38;5055388;28;20067;-57
2022/05/12 07:38:46;;;;;;;29.73;4.60;;;;;;;11.31;55.02;100219.94;5054810;28;20061;-57
2022/05/12 07:41:18;;;;;;;19.63;4.47;;;;;;;11.43;55.69;100295.53;5044840;28;20462;-57
2022/05/12 07:43:51;;;;;;;17.55;4.03;;;;;;;11.46;56.12;100292.91;5054755;28;20124;-56
2022/05/12 07:46:24;;;;;;;18.67;3.85;;;;;;;11.41;56.31;100297.34;5055130;28;20053;-56
2022/05/12 07:48:55;;;;;;;11.93;3.85;;;;;;;11.35;55.99;100308.78;5054306;28;20110;-54
2022/05/12 07:51:26;;;;;;;15.65;3.67;;;;;;;11.22;56.65;100302.91;5053199;28;20351;-58
2022/05/12 07:53:57;;;;;;;16.77;3.80;;;;;;;11.09;56.93;100306.66;5054509;28;20262;-57
2022/05/12 07:56:30;;;;;;;18.42;3.33;;;;;;;10.91;57.06;100314.81;5053658;28;20128;-57
2022/05/12 07:59:04;;;;;;;23.48;4.18;;;;;;;10.72;57.58;100302.03;5054257;28;20061;-56
2022/05/12 08:01:35;;;;;;;21.15;3.97;;;;;;;10.66;57.52;100296.94;5054527;28;20041;-58
2022/05/12 08:04:06;;;;;;;31.48;3.95;;;;;;;10.55;58.46;100306.69;5054165;28;20089;-56
2022/05/12 08:06:36;;;;;;;26.33;3.88;;;;;;;10.41;58.60;100304.28;5054259;28;20332;-54
2022/05/12 08:09:07;;;;;;;18.92;4.03;;;;;;;10.36;58.49;100304.34;5053564;28;20053;-58
2022/05/12 08:11:38;;;;;;;17.05;4.00;;;;;;;10.28;59.04;100303.63;5054418;28;20067;-58
2022/05/12 08:14:10;;;;;;;17.38;4.07;;;;;;;10.19;59.38;100303.69;5053878;28;20056;-56
2022/05/12 08:16:41;;;;;;;19.45;4.28;;;;;;;10.13;60.12;100309.00;5054111;28;20048;-56
2022/05/12 08:19:12;;;;;;;16.60;3.88;;;;;;;10.00;59.88;100307.44;5054059;28;20124;-55
2022/05/12 08:21:43;;;;;;;19.50;4.25;;;;;;;9.74;60.63;100303.44;5054217;28;20061;-56
2022/05/12 08:24:15;;;;;;;27.48;4.95;;;;;;;9.69;60.99;100315.66;5054126;28;20307;-57
2022/05/12 08:26:46;;;;;;;24.40;6.10;;;;;;;9.58;61.16;100317.53;5053279;28;20136;-59
2022/05/12 08:29:19;;;;;;;18.58;4.57;;;;;;;9.32;61.52;100313.47;5053672;28;20052;-58
2022/05/12 08:31:49;;;;;;;22.33;4.38;;;;;;;9.34;61.75;100319.53;5053514;28;20044;-56
2022/05/12 08:34:20;;;;;;;39.05;14.68;;;;;;;9.32;61.47;100318.69;5053616;28;20055;-56
2022/05/12 08:36:52;;;;;;;33.83;10.70;;;;;;;9.34;61.48;100314.31;5052843;28;20051;-55
2022/05/12 08:39:23;;;;;;;31.50;4.90;;;;;;;9.32;61.56;100320.44;5053276;28;20115;-54
2022/05/12 08:42:01;;;;;;;25.85;5.03;;;;;;;9.40;61.33;100314.25;5053456;28;20201;-58
2022/05/12 08:44:37;;;;;;;19.92;4.78;;;;;;;9.26;60.79;100274.41;5053413;28;20058;-57
2022/05/12 08:47:13;;;;;;;24.35;4.60;;;;;;;9.52;60.63;100301.97;5053384;28;20055;-57
2022/05/12 08:49:47;;;;;;;20.60;4.85;;;;;;;9.57;59.92;100305.38;5053268;28;20110;-57
2022/05/12 08:52:20;;;;;;;18.40;4.45;;;;;;;9.42;60.00;100286.41;5053319;28;20560;-56
2022/05/12 08:54:57;;;;;;;19.88;5.47;;;;;;;9.35;60.64;100255.19;5053044;28;20053;-56
2022/05/12 08:57:31;;;;;;;13.43;3.80;;;;;;;9.77;59.89;100302.53;5052909;28;20048;-56
2022/05/12 09:00:06;;;;;;;20.85;4.60;;;;;;;9.71;59.91;100304.34;5053105;28;20052;-55
2022/05/12 09:02:49;;;;;;;25.05;5.78;;;;;;;9.84;59.35;100320.69;5052536;28;20060;-57
2022/05/12 09:05:23;;;;;;;16.65;4.40;;;;;;;9.63;58.26;100310.50;5052717;28;20143;-58
2022/05/12 09:08:00;;;;;;;24.38;5.13;;;;;;;9.60;59.58;100339.25;5052971;28;20524;-55
2022/05/12 09:10:43;;;;;;;21.88;5.32;;;;;;;9.39;59.96;100343.81;5049742;28;20080;-54
2022/05/12 09:13:17;;;;;;;24.95;6.28;;;;;;;9.17;60.29;100347.50;5053497;28;20052;-54
2022/05/12 09:15:58;;;;;;;19.85;6.47;;;;;;;9.01;61.13;100358.09;5053284;28;20053;-55
2022/05/12 09:18:33;;;;;;;25.83;7.85;;;;;;;8.88;61.48;100361.66;5053267;28;20065;-55
2022/05/12 09:21:06;;;;;;;23.60;6.45;;;;;;;8.75;61.68;100375.66;5053227;28;20049;-57
2022/05/12 09:23:37;;;;;;;26.80;6.95;;;;;;;8.61;62.02;100357.50;5053134;28;20095;-56
2022/05/12 09:26:33;;;;;;;23.02;6.38;;;;;;;8.39;62.89;100346.34;5052936;28;20049;-58
2022/05/12 09:29:22;;;;;;;25.80;6.80;;;;;;;8.20;63.36;100338.63;5045807;28;20057;-55
2022/05/12 09:31:57;;;;;;;22.30;6.22;;;;;;;8.08;63.87;100341.28;5053102;28;20314;-54
2022/05/12 09:34:32;;;;;;;27.48;5.00;;;;;;;7.81;64.10;100299.78;5052390;28;20061;-58
2022/05/12 09:37:20;;;;;;;39.65;7.25;;;;;;;7.91;64.42;100332.69;5051499;28;20349;-58
2022/05/12 09:39:52;;;;;;;22.10;5.43;;;;;;;7.85;64.45;100338.78;5052939;28;20080;-58
2022/05/12 09:42:41;;;;;;;13.38;4.55;;;;;;;7.72;64.76;100326.72;5049271;28;20049;-57
2022/05/12 09:45:28;;;;;;;20.05;4.95;;;;;;;7.39;65.08;100296.47;5051851;28;20083;-59
2022/05/12 09:48:18;;;;;;;25.30;6.50;;;;;;;7.52;65.52;100361.44;5052248;28;20049;-58
2022/05/12 09:50:49;;;;;;;21.63;5.50;;;;;;;7.27;65.73;100360.63;5052742;28;20057;-58
2022/05/12 09:53:39;;;;;;;16.90;5.15;;;;;;;7.09;65.74;100368.44;5052565;28;20060;-57
2022/05/12 09:56:18;;;;;;;22.75;5.32;;;;;;;7.02;65.76;100372.78;5052329;28;20060;-58
2022/05/12 09:58:58;;;;;;;43.17;6.53;;;;;;;6.85;66.30;100371.91;5052777;28;20056;-58
2022/05/12 10:01:30;;;;;;;33.22;7.07;;;;;;;6.84;66.41;100381.44;5052705;28;20041;-59
2022/05/12 10:10:09;;;;;;;21.65;6.95;;;;;;;6.56;67.14;100395.22;5052382;28;20088;-57
2022/05/12 10:12:52;;;;;;;26.38;7.43;;;;;;;5.99;67.55;100325.91;5051995;28;20079;-57
2022/05/12 10:15:29;;;;;;;23.77;7.18;;;;;;;6.35;67.82;100402.09;5052465;28;20041;-56
2022/05/12 10:54:19;;;;;;;24.52;6.25;;;;;;;5.90;70.84;100403.63;5132476;27;20720;-54
2022/05/12 10:56:59;;;;;;;28.15;6.28;;;;;;;6.00;71.27;100405.44;5110555;28;20801;-58
2022/05/12 10:59:44;;;;;;;22.05;6.35;;;;;;;6.03;70.80;100405.44;5111049;28;20043;-53
2022/05/12 11:02:22;;;;;;;31.25;6.22;;;;;;;5.94;70.79;100382.06;5110415;28;20063;-51
2022/05/12 11:04:57;;;;;;;25.27;7.03;;;;;;;5.83;71.07;100375.91;5110808;28;20048;-56
2022/05/12 11:07:33;;;;;;;22.58;6.38;;;;;;;5.74;71.17;100396.59;5110834;28;20466;-58
2022/05/12 11:10:15;;;;;;;17.10;6.25;;;;;;;5.52;72.23;100386.13;5110687;28;20201;-56
2022/05/12 11:12:50;;;;;;;25.02;7.15;;;;;;;5.23;72.48;100356.56;5110958;28;20116;-56
2022/05/12 11:15:31;;;;;;;25.08;7.10;;;;;;;5.42;72.41;100405.06;5108697;28;20043;-59
2022/05/12 11:18:05;;;;;;;23.60;7.07;;;;;;;5.26;72.39;100398.03;5110154;28;20060;-54
2022/05/12 11:20:46;;;;;;;21.60;8.15;;;;;;;5.33;72.88;100415.38;5110344;28;20047;-53
2022/05/12 11:23:26;;;;;;;34.10;8.20;;;;;;;5.35;72.86;100421.44;5110202;28;20063;-56
2022/05/12 11:26:03;;;;;;;;;;;;;;;5.38;72.75;100434.41;5110827;28;20064;-55
2022/05/12 11:31:37;;;;;;;24.08;7.78;;;;;;;5.35;72.96;100442.16;5108396;28;20245;-57
2022/05/12 11:34:10;;;;;;;25.42;8.30;;;;;;;5.39;72.87;100441.31;5109588;28;20227;-55
2022/05/12 11:36:42;;;;;;;35.10;8.35;;;;;;;5.39;73.00;100441.31;5109761;28;20059;-56
2022/05/12 11:39:26;;;;;;;24.40;6.88;;;;;;;5.43;73.20;100429.25;5109828;28;20170;-57
2022/05/12 11:42:18;;;;;;;23.98;7.63;;;;;;;5.34;72.94;100422.28;5109115;28;20057;-53
2022/05/12 11:45:03;;;;;;;26.70;7.57;;;;;;;5.30;73.39;100426.56;5108921;28;20059;-55
2022/05/12 11:48:11;;;;;;;42.38;8.30;;;;;;;5.22;73.47;100423.06;5109402;28;20059;-55
2022/05/12 11:50:57;;;;;;;33.42;7.25;;;;;;;5.07;73.65;100421.22;5080158;28;20059;-53
2022/05/12 11:53:32;;;;;;;38.75;7.55;;;;;;;5.00;73.68;100415.97;5104528;28;20060;-56
2022/05/12 11:56:07;;;;;;;39.75;6.95;;;;;;;4.93;74.24;100413.31;5096220;28;20055;-55
2022/05/12 11:58:42;;;;;;;37.47;8.13;;;;;;;5.10;74.42;100413.47;5095663;28;20330;-54
2022/05/12 12:01:14;;;;;;;20.33;6.10;;;;;;;5.31;74.21;100419.66;5096276;28;20047;-54
2022/05/12 12:03:55;;;;;;;21.42;6.38;;;;;;;5.04;74.63;100333.16;5095740;28;20380;-54
2022/05/12 12:06:53;;;;;;;25.60;6.30;;;;;;;5.67;74.35;100402.66;5095027;28;20060;-56
2022/05/12 12:09:50;;;;;;;26.92;6.65;;;;;;;5.69;74.19;100403.50;5095014;28;20445;-57
2022/05/12 12:12:56;;;;;;;24.50;7.00;;;;;;;5.87;74.11;100429.53;5094638;28;20078;-57
2022/05/12 12:16:04;;;;;;;183.80;86.43;;;;;;;5.91;74.00;100420.03;5095435;28;20126;-56
2022/05/12 12:19:03;;;;;;;40.90;16.50;;;;;;;5.90;73.46;100419.19;5094961;28;20350;-56
2022/05/12 12:21:57;;;;;;;37.22;9.57;;;;;;;5.81;73.34;100407.03;5094779;28;20352;-55
2022/05/12 12:24:59;;;;;;;55.92;25.48;;;;;;;5.97;73.52;100410.63;5094871;28;20111;-57
2022/05/12 12:28:13;;;;;;;28.40;10.23;;;;;;;6.04;73.15;100417.56;5094915;28;20066;-58
2022/05/12 12:31:11;;;;;;;27.63;8.95;;;;;;;5.93;72.46;100421.78;5095120;28;20075;-56
2022/05/12 12:33:59;;;;;;;27.95;8.77;;;;;;;5.79;72.53;100428.63;5095476;28;20052;-58
2022/05/12 12:37:06;;;;;;;30.67;8.70;;;;;;;5.71;72.80;100432.91;5094759;28;20075;-55
2022/05/12 12:39:49;;;;;;;30.85;8.77;;;;;;;5.06;72.88;100339.16;5095239;28;20059;-57
2022/05/12 12:42:29;;;;;;;35.75;10.10;;;;;;;5.67;72.90;100441.53;5094928;28;20087;-55
2022/05/12 12:45:05;;;;;;;31.42;9.98;;;;;;;5.70;73.56;100437.22;5094610;28;20361;-56
2022/05/12 12:47:43;;;;;;;30.50;9.23;;;;;;;5.75;73.72;100450.22;5094687;28;20083;-57
2022/05/12 12:50:41;;;;;;;51.85;16.73;;;;;;;5.87;73.53;100450.28;5094939;28;20066;-56
2022/05/12 12:53:15;;;;;;;40.83;10.77;;;;;;;5.96;72.97;100445.16;5093774;28;20048;-55
2022/05/12 12:58:42;;;;;;;28.07;8.40;;;;;;;5.97;72.65;100472.84;5094574;28;20066;-56